createdAt,value
2018-07-25T00:01:56.936Z,6.60
2018-07-25T00:04:25.153Z,7.20
2018-07-25T00:06:53.370Z,9.10
2018-07-25T00:09:21.608Z,10.20
2018-07-25T00:11:49.828Z,6.47
2018-07-25T00:14:18.024Z,6.73
2018-07-25T00:16:46.216Z,8.37
2018-07-25T00:19:14.421Z,7.07
2018-07-25T00:21:42.624Z,7.03
2018-07-25T00:24:10.828Z,7.80
2018-07-25T00:26:39.053Z,6.47
2018-07-25T00:29:07.310Z,7.40
2018-07-25T00:31:35.543Z,11.43
2018-07-25T00:34:03.805Z,6.23
2018-07-25T00:36:32.073Z,7.37
2018-07-25T00:39:00.273Z,7.27
2018-07-25T00:41:28.480Z,8.63
2018-07-25T00:43:56.708Z,7.47
2018-07-25T00:46:24.936Z,7.07
2018-07-25T00:48:53.160Z,7.47
2018-07-25T00:51:21.361Z,7.43
2018-07-25T00:53:49.579Z,7.00
2018-07-25T00:56:17.785Z,7.13
2018-07-25T00:58:45.996Z,8.00
2018-07-25T01:01:14.224Z,8.33
2018-07-25T01:03:42.433Z,7.93
2018-07-25T01:06:10.652Z,8.07
2018-07-25T01:08:38.865Z,7.67
2018-07-25T01:11:07.073Z,7.40
2018-07-25T01:13:35.693Z,7.97
2018-07-25T01:16:03.961Z,7.87
2018-07-25T01:18:32.170Z,7.30
2018-07-25T01:21:00.369Z,8.63
2018-07-25T01:23:28.580Z,7.73
2018-07-25T01:25:56.848Z,10.73
2018-07-25T01:28:25.060Z,7.33
2018-07-25T01:30:53.284Z,7.33
2018-07-25T01:33:21.492Z,8.03
2018-07-25T01:35:49.752Z,7.70
2018-07-25T01:38:17.982Z,8.33
2018-07-25T01:40:46.228Z,8.10
2018-07-25T01:43:14.470Z,8.10
2018-07-25T01:45:42.688Z,8.20
2018-07-25T01:48:10.952Z,7.67
2018-07-25T01:50:39.188Z,9.93
2018-07-25T01:53:07.411Z,10.07
2018-07-25T01:55:35.616Z,11.20
2018-07-25T01:58:03.848Z,9.70
2018-07-25T02:00:32.083Z,9.67
2018-07-25T02:03:00.300Z,10.10
2018-07-25T02:05:28.510Z,10.07
2018-07-25T02:07:56.713Z,9.30
2018-07-25T02:10:24.936Z,11.23
2018-07-25T02:12:53.158Z,9.20
2018-07-25T02:15:21.387Z,9.77
2018-07-25T02:17:49.609Z,9.70
2018-07-25T02:20:17.848Z,8.87
2018-07-25T02:22:46.050Z,9.03
2018-07-25T02:25:14.268Z,12.13
2018-07-25T02:27:42.473Z,8.53
2018-07-25T02:30:10.689Z,9.23
2018-07-25T02:32:38.961Z,9.03
2018-07-25T02:35:07.172Z,9.03
2018-07-25T02:37:35.452Z,9.10
2018-07-25T02:40:03.790Z,9.60
2018-07-25T02:42:32.196Z,9.13
2018-07-25T02:45:00.342Z,9.30
2018-07-25T02:47:28.577Z,9.80
2018-07-25T02:49:56.801Z,9.00
2018-07-25T02:52:25.045Z,10.17
2018-07-25T02:54:53.272Z,8.70
2018-07-25T02:57:21.501Z,8.13
2018-07-25T02:59:49.758Z,8.90
2018-07-25T03:02:17.980Z,8.63
2018-07-25T03:04:46.206Z,8.80
2018-07-25T03:07:14.434Z,8.03
2018-07-25T03:09:42.636Z,8.90
2018-07-25T03:12:10.847Z,8.70
2018-07-25T03:14:39.107Z,9.13
2018-07-25T03:17:07.644Z,9.00
2018-07-25T03:19:35.984Z,10.00
2018-07-25T03:22:04.225Z,10.33
2018-07-25T03:24:32.468Z,9.47
2018-07-25T03:27:00.708Z,8.93
2018-07-25T03:29:28.921Z,10.07
2018-07-25T03:31:57.148Z,9.83
2018-07-25T03:34:25.344Z,9.10
2018-07-25T03:36:53.601Z,9.60
2018-07-25T03:39:22.261Z,10.10
2018-07-25T03:41:50.496Z,9.53
2018-07-25T03:44:18.720Z,9.63
2018-07-25T03:46:46.936Z,10.23
2018-07-25T03:49:15.137Z,9.57
2018-07-25T03:51:43.346Z,9.97
2018-07-25T03:54:11.568Z,10.27
2018-07-25T03:56:39.796Z,10.03
2018-07-25T03:59:08.020Z,10.57
2018-07-25T04:01:36.248Z,10.63
2018-07-25T04:04:05.196Z,10.00
2018-07-25T04:06:33.488Z,10.03
2018-07-25T04:09:01.706Z,10.87
2018-07-25T04:11:29.936Z,8.97
2018-07-25T04:13:58.152Z,10.07
2018-07-25T04:16:26.361Z,9.33
2018-07-25T04:18:54.573Z,10.23
2018-07-25T04:21:22.804Z,9.53
2018-07-25T04:23:51.049Z,10.30
2018-07-25T04:26:19.252Z,11.23
2018-07-25T04:28:47.475Z,10.13
2018-07-25T04:31:15.700Z,10.57
2018-07-25T04:33:43.928Z,10.33
2018-07-25T04:36:12.188Z,11.10
2018-07-25T04:38:40.400Z,11.33
2018-07-25T04:41:08.640Z,11.20
2018-07-25T04:43:36.843Z,11.27
2018-07-25T04:46:05.150Z,11.13
2018-07-25T04:48:33.384Z,10.03
2018-07-25T04:51:01.616Z,11.13
2018-07-25T04:53:29.824Z,10.57
2018-07-25T04:55:58.248Z,10.80
2018-07-25T04:58:27.608Z,11.53
2018-07-25T05:00:56.316Z,10.37
2018-07-25T05:03:24.520Z,12.73
2018-07-25T05:05:52.741Z,11.03
2018-07-25T05:08:20.951Z,10.50
2018-07-25T05:10:49.173Z,11.50
2018-07-25T05:13:17.388Z,14.63
2018-07-25T05:15:45.620Z,13.67
2018-07-25T05:18:13.887Z,12.67
2018-07-25T05:20:42.102Z,12.27
2018-07-25T05:23:10.341Z,15.43
2018-07-25T05:25:38.555Z,13.43
2018-07-25T05:28:06.796Z,13.47
2018-07-25T05:30:36.304Z,15.60
2018-07-25T05:33:04.589Z,19.33
2018-07-25T05:35:32.808Z,14.23
2018-07-25T05:38:01.035Z,17.30
2018-07-25T05:40:29.252Z,17.03
2018-07-25T05:42:57.512Z,15.63
2018-07-25T05:45:25.798Z,15.23
2018-07-25T05:47:54.076Z,14.80
2018-07-25T05:50:22.289Z,16.27
2018-07-25T05:52:50.512Z,14.63
2018-07-25T05:55:18.736Z,16.00
2018-07-25T05:57:46.970Z,15.17
2018-07-25T06:00:15.195Z,14.37
2018-07-25T06:02:43.415Z,16.00
2018-07-25T06:05:11.649Z,17.50
2018-07-25T06:07:39.880Z,17.03
2018-07-25T06:10:08.162Z,16.47
2018-07-25T06:12:36.376Z,18.60
2018-07-25T06:15:05.360Z,15.47
2018-07-25T06:17:33.604Z,21.97
2018-07-25T06:20:01.828Z,16.13
2018-07-25T06:22:30.038Z,16.80
2018-07-25T06:24:58.310Z,17.50
2018-07-25T06:27:26.513Z,16.90
2018-07-25T06:29:54.720Z,16.27
2018-07-25T06:32:22.936Z,15.17
2018-07-25T06:34:51.201Z,19.17
2018-07-25T06:37:19.409Z,16.10
2018-07-25T06:39:47.620Z,18.00
2018-07-25T06:42:15.854Z,15.80
2018-07-25T06:44:44.072Z,16.00
2018-07-25T06:47:12.396Z,16.20
2018-07-25T06:49:40.609Z,17.03
2018-07-25T06:52:08.848Z,15.87
2018-07-25T06:54:37.092Z,15.77
2018-07-25T06:57:05.672Z,16.00
2018-07-25T06:59:33.904Z,14.97
2018-07-25T07:02:02.249Z,15.00
2018-07-25T07:04:30.452Z,18.40
2018-07-25T07:06:58.719Z,18.83
2018-07-25T07:09:26.902Z,18.40
2018-07-25T07:11:55.168Z,18.80
2018-07-25T07:14:23.440Z,20.93
2018-07-25T07:16:51.672Z,21.63
2018-07-25T07:19:19.892Z,24.53
2018-07-25T07:21:48.140Z,21.50
2018-07-25T07:24:16.397Z,23.07
2018-07-25T07:26:44.628Z,26.47
2018-07-25T07:29:12.878Z,20.60
2018-07-25T07:31:41.141Z,22.70
2018-07-25T07:34:09.369Z,20.03
2018-07-25T07:36:37.609Z,21.43
2018-07-25T07:39:09.448Z,28.80
2018-07-25T07:41:37.705Z,26.13
2018-07-25T07:44:06.343Z,29.00
2018-07-25T07:46:34.604Z,27.23
2018-07-25T07:49:02.856Z,27.53
2018-07-25T07:51:31.201Z,28.50
2018-07-25T07:53:59.468Z,22.60
2018-07-25T07:56:27.717Z,20.57
2018-07-25T07:58:56.169Z,28.60
2018-07-25T08:01:24.396Z,23.43
2018-07-25T08:03:52.620Z,23.53
2018-07-25T08:06:20.836Z,25.70
2018-07-25T08:08:49.098Z,28.43
2018-07-25T08:11:19.564Z,22.63
2018-07-25T08:13:48.906Z,24.83
2018-07-25T08:16:17.564Z,23.50
2018-07-25T08:18:45.792Z,18.37
2018-07-25T08:21:14.555Z,24.67
2018-07-25T08:23:43.696Z,22.60
2018-07-25T08:26:11.996Z,22.30
2018-07-25T08:28:40.228Z,21.80
2018-07-25T08:31:08.748Z,27.57
2018-07-25T08:33:36.957Z,19.87
2018-07-25T08:36:05.235Z,19.00
2018-07-25T08:38:37.800Z,17.27
2018-07-25T08:41:06.475Z,23.20
2018-07-25T08:43:35.805Z,22.17
2018-07-25T08:46:04.136Z,25.13
2018-07-25T08:48:32.596Z,21.80
2018-07-25T08:51:01.008Z,21.63
2018-07-25T08:53:29.718Z,28.43
2018-07-25T08:55:57.937Z,19.63
2018-07-25T08:58:26.228Z,18.47
2018-07-25T09:00:54.473Z,27.13
2018-07-25T09:03:22.832Z,21.53
2018-07-25T09:05:51.108Z,15.43
2018-07-25T09:08:19.336Z,18.13
2018-07-25T09:10:47.533Z,18.73
2018-07-25T09:13:15.777Z,16.40
2018-07-25T09:15:44.284Z,17.67
2018-07-25T09:18:12.615Z,16.73
2018-07-25T09:20:40.873Z,17.83
2018-07-25T09:23:09.092Z,16.20
2018-07-25T09:25:37.327Z,14.63
2018-07-25T09:28:05.836Z,19.87
2018-07-25T09:30:34.125Z,18.93
2018-07-25T09:33:02.376Z,16.67
2018-07-25T09:35:30.629Z,19.20
2018-07-25T09:37:58.904Z,14.40
2018-07-25T09:40:27.161Z,14.90
2018-07-25T09:42:55.400Z,13.80
2018-07-25T09:45:23.673Z,14.67
2018-07-25T09:47:51.906Z,15.37
2018-07-25T09:50:20.097Z,14.27
2018-07-25T09:52:48.332Z,11.50
2018-07-25T09:55:16.601Z,11.10
2018-07-25T09:57:44.866Z,12.93
2018-07-25T10:00:17.258Z,14.53
2018-07-25T10:02:45.432Z,13.03
2018-07-25T10:05:13.668Z,10.87
2018-07-25T10:07:42.045Z,10.90
2018-07-25T10:10:10.189Z,10.77
2018-07-25T10:12:38.387Z,8.83
2018-07-25T10:15:06.716Z,10.30
2018-07-25T10:17:34.826Z,11.03
2018-07-25T10:20:03.059Z,10.07
2018-07-25T10:22:31.278Z,11.87
2018-07-25T10:24:59.733Z,8.93
2018-07-25T10:27:28.019Z,12.70
2018-07-25T10:29:56.216Z,9.23
2018-07-25T10:32:24.408Z,9.50
2018-07-25T10:34:52.624Z,7.80
2018-07-25T10:37:20.856Z,9.60
2018-07-25T10:39:49.058Z,13.23
2018-07-25T10:42:17.280Z,7.53
2018-07-25T10:44:45.488Z,11.43
2018-07-25T10:47:13.704Z,16.20
2018-07-25T10:49:41.920Z,12.97
2018-07-25T10:52:10.180Z,10.43
2018-07-25T10:54:38.396Z,9.03
2018-07-25T10:57:06.831Z,8.73
2018-07-25T10:59:35.098Z,8.40
2018-07-25T11:02:03.416Z,7.87
2018-07-25T11:04:31.629Z,10.60
2018-07-25T11:06:59.826Z,7.53
2018-07-25T11:09:28.067Z,7.73
2018-07-25T11:11:56.267Z,7.80
2018-07-25T11:14:24.484Z,15.57
2018-07-25T11:16:52.697Z,10.27
2018-07-25T11:19:20.944Z,7.80
2018-07-25T11:21:49.168Z,13.40
2018-07-25T11:24:17.376Z,8.57
2018-07-25T11:26:45.628Z,10.30
2018-07-25T11:29:13.901Z,9.73
2018-07-25T11:31:42.176Z,11.27
2018-07-25T11:34:10.385Z,12.53
2018-07-25T11:36:38.607Z,8.27
2018-07-25T11:39:09.512Z,8.70
2018-07-25T11:41:37.800Z,6.23
2018-07-25T11:44:06.107Z,6.30
2018-07-25T11:46:34.413Z,6.00
2018-07-25T11:49:02.729Z,5.33
2018-07-25T11:51:30.965Z,5.37
2018-07-25T11:53:59.917Z,5.33
2018-07-25T11:56:28.101Z,4.93
2018-07-25T11:58:56.304Z,5.13
2018-07-25T12:01:24.511Z,5.87
2018-07-25T12:03:52.724Z,6.93
2018-07-25T12:06:20.945Z,5.13
2018-07-25T12:08:49.159Z,5.93
2018-07-25T12:11:17.361Z,5.23
2018-07-25T12:13:45.612Z,5.42
2018-07-25T12:16:13.816Z,5.08
2018-07-25T12:18:42.024Z,4.93
2018-07-25T12:21:10.479Z,4.97
2018-07-25T12:23:38.652Z,4.80
2018-07-25T12:26:06.888Z,4.53
2018-07-25T12:28:35.080Z,4.90
2018-07-25T12:31:03.298Z,8.20
2018-07-25T12:33:31.494Z,5.40
2018-07-25T12:35:59.744Z,5.20
2018-07-25T12:38:27.960Z,7.50
2018-07-25T12:40:56.715Z,5.25
2018-07-25T12:43:24.917Z,5.13
2018-07-25T12:45:53.160Z,4.90
2018-07-25T12:48:21.528Z,5.03
2018-07-25T12:50:49.752Z,5.20
2018-07-25T12:53:18.039Z,4.92
2018-07-25T12:55:46.293Z,4.62
2018-07-25T12:58:14.561Z,5.10
2018-07-25T13:00:42.756Z,4.62
2018-07-25T13:03:10.964Z,5.28
2018-07-25T13:05:39.188Z,4.67
2018-07-25T13:08:07.404Z,5.22
2018-07-25T13:10:35.670Z,4.33
2018-07-25T13:13:03.822Z,5.12
2018-07-25T13:15:32.085Z,5.55
2018-07-25T13:18:00.288Z,4.90
2018-07-25T13:20:28.516Z,4.75
2018-07-25T13:22:56.806Z,4.75
2018-07-25T13:25:25.000Z,5.15
2018-07-25T13:27:53.396Z,4.00
2018-07-25T13:30:21.600Z,9.23
2018-07-25T13:32:49.808Z,5.67
2018-07-25T13:35:18.040Z,7.22
2018-07-25T13:37:46.300Z,5.37
2018-07-25T13:40:14.525Z,6.70
2018-07-25T13:42:42.783Z,6.13
2018-07-25T13:45:11.009Z,6.28
2018-07-25T13:47:39.250Z,12.30
2018-07-25T13:50:07.484Z,7.33
2018-07-25T13:52:35.680Z,5.53
2018-07-25T13:55:03.958Z,8.07
2018-07-25T13:57:32.203Z,7.20
2018-07-25T14:00:00.409Z,9.00
2018-07-25T14:02:28.712Z,5.00
2018-07-25T14:04:56.921Z,5.75
2018-07-25T14:07:25.128Z,5.08
2018-07-25T14:09:53.369Z,5.90
2018-07-25T14:12:21.593Z,5.80
2018-07-25T14:14:49.798Z,5.12
2018-07-25T14:17:18.020Z,5.65
2018-07-25T14:19:46.246Z,4.90
2018-07-25T14:22:14.465Z,5.62
2018-07-25T14:24:42.791Z,5.60
2018-07-25T14:27:11.026Z,4.67
2018-07-25T14:29:39.220Z,4.70
2018-07-25T14:32:07.788Z,5.00
2018-07-25T14:34:36.063Z,5.12
2018-07-25T14:37:04.391Z,4.62
2018-07-25T14:39:32.598Z,5.33
2018-07-25T14:42:00.808Z,5.33
2018-07-25T14:44:29.042Z,5.08
2018-07-25T14:46:57.338Z,5.47
2018-07-25T14:49:25.484Z,6.28
2018-07-25T14:51:53.771Z,5.85
2018-07-25T14:54:22.015Z,6.05
2018-07-25T14:56:50.234Z,5.45
2018-07-25T14:59:18.656Z,5.22
2018-07-25T15:01:46.872Z,4.17
2018-07-25T15:04:15.073Z,4.95
2018-07-25T15:06:43.302Z,5.07
2018-07-25T15:09:12.030Z,5.50
2018-07-25T15:11:40.508Z,8.03
2018-07-25T15:14:09.187Z,4.90
2018-07-25T15:16:37.444Z,5.33
2018-07-25T15:19:05.752Z,5.40
2018-07-25T15:21:33.997Z,4.53
2018-07-25T15:24:04.517Z,4.67
2018-07-25T15:26:32.808Z,4.77
2018-07-25T15:29:01.652Z,5.53
2018-07-25T15:31:29.937Z,5.03
2018-07-25T15:33:58.176Z,5.15
2018-07-25T15:36:39.874Z,5.17
2018-07-25T15:39:11.872Z,4.60
2018-07-25T15:41:40.148Z,3.90
2018-07-25T15:44:08.372Z,4.33
2018-07-25T15:46:36.607Z,4.50
2018-07-25T15:49:05.267Z,6.85
2018-07-25T15:51:33.524Z,6.25
2018-07-25T15:54:02.008Z,4.37
2018-07-25T15:56:30.256Z,4.42
2018-07-25T15:58:58.464Z,4.87
2018-07-25T16:01:26.712Z,4.05
2018-07-25T16:03:54.939Z,4.67
2018-07-25T16:06:23.750Z,4.25
2018-07-25T16:08:52.248Z,4.15
2018-07-25T16:11:20.470Z,4.00
2018-07-25T16:13:48.848Z,3.65
2018-07-25T16:16:17.637Z,4.15
2018-07-25T16:18:46.126Z,4.37
2018-07-25T16:21:14.344Z,3.87
2018-07-25T16:23:42.621Z,3.67
2018-07-25T16:26:10.856Z,4.20
2018-07-25T16:28:39.138Z,3.80
2018-07-25T16:31:07.761Z,3.87
2018-07-25T16:33:36.185Z,4.33
2018-07-25T16:36:04.445Z,3.93
2018-07-25T16:38:32.620Z,4.63
2018-07-25T16:41:00.853Z,3.80
2018-07-25T16:43:29.084Z,4.00
2018-07-25T16:45:57.308Z,4.10
2018-07-25T16:48:25.513Z,9.67
2018-07-25T16:50:53.753Z,4.33
2018-07-25T16:53:21.960Z,3.90
2018-07-25T16:55:50.173Z,4.43
2018-07-25T16:58:18.409Z,5.80
2018-07-25T17:00:46.604Z,4.70
2018-07-25T17:03:15.210Z,4.53
2018-07-25T17:05:43.444Z,5.67
2018-07-25T17:08:11.649Z,4.23
2018-07-25T17:10:39.869Z,4.40
2018-07-25T17:13:08.072Z,4.60
2018-07-25T17:15:36.283Z,5.90
2018-07-25T17:18:04.524Z,5.13
2018-07-25T17:20:32.832Z,5.03
2018-07-25T17:23:00.965Z,4.20
2018-07-25T17:25:29.192Z,4.40
2018-07-25T17:27:57.419Z,3.77
2018-07-25T17:30:25.624Z,8.03
2018-07-25T17:32:53.840Z,4.93
2018-07-25T17:35:22.095Z,4.77
2018-07-25T17:37:50.484Z,9.47
2018-07-25T17:40:18.708Z,4.95
2018-07-25T17:42:46.940Z,4.90
2018-07-25T17:45:15.181Z,5.10
2018-07-25T17:47:43.394Z,4.97
2018-07-25T17:50:11.617Z,4.60
2018-07-25T17:52:40.289Z,4.77
2018-07-25T17:55:08.775Z,5.20
2018-07-25T17:57:36.968Z,4.33
2018-07-25T18:00:07.814Z,4.27
2018-07-25T18:02:36.073Z,4.70
2018-07-25T18:05:04.307Z,4.87
2018-07-25T18:07:32.536Z,5.10
2018-07-25T18:10:00.768Z,5.83
2018-07-25T18:12:28.980Z,5.77
2018-07-25T18:14:57.220Z,5.63
2018-07-25T18:17:25.459Z,6.87
2018-07-25T18:19:53.662Z,6.40
2018-07-25T18:22:21.888Z,5.23
2018-07-25T18:24:50.104Z,5.50
2018-07-25T18:27:18.332Z,5.80
2018-07-25T18:29:46.552Z,5.80
2018-07-25T18:32:14.790Z,6.37
2018-07-25T18:34:43.024Z,6.53
2018-07-25T18:37:11.256Z,5.37
2018-07-25T18:39:39.672Z,5.10
2018-07-25T18:42:08.377Z,6.43
2018-07-25T18:44:36.689Z,5.83
2018-07-25T18:47:05.064Z,6.93
2018-07-25T18:49:33.297Z,5.23
2018-07-25T18:52:01.538Z,7.37
2018-07-25T18:54:29.807Z,6.73
2018-07-25T18:56:58.043Z,5.20
2018-07-25T18:59:26.254Z,5.77
2018-07-25T19:01:54.527Z,5.60
2018-07-25T19:04:22.744Z,5.23
2018-07-25T19:06:50.997Z,5.77
2018-07-25T19:09:19.268Z,5.37
2018-07-25T19:11:47.712Z,6.10
2018-07-25T19:14:21.163Z,6.20
2018-07-25T19:16:49.402Z,6.33
2018-07-25T19:19:17.616Z,8.47
2018-07-25T19:21:45.860Z,4.90
2018-07-25T19:24:14.069Z,5.70
2018-07-25T19:26:42.305Z,9.00
2018-07-25T19:29:10.556Z,5.13
2018-07-25T19:31:38.768Z,5.47
2018-07-25T19:34:07.003Z,7.57
2018-07-25T19:36:35.213Z,6.40
2018-07-25T19:39:05.107Z,5.90
2018-07-25T19:41:33.312Z,6.33
2018-07-25T19:44:01.537Z,7.17
2018-07-25T19:46:29.765Z,5.40
2018-07-25T19:48:58.031Z,5.03
2018-07-25T19:51:26.277Z,5.40
2018-07-25T19:53:54.653Z,5.73
2018-07-25T19:56:22.889Z,5.17
2018-07-25T19:58:51.168Z,4.87
2018-07-25T20:01:19.385Z,5.13
2018-07-25T20:03:47.624Z,5.67
2018-07-25T20:06:15.873Z,5.30
2018-07-25T20:08:44.095Z,6.27
2018-07-25T20:11:12.348Z,7.40
2018-07-25T20:13:45.956Z,5.50
2018-07-25T20:16:14.168Z,5.93
2018-07-25T20:18:42.423Z,5.57
2018-07-25T20:21:10.653Z,6.23
2018-07-25T20:23:38.876Z,5.50
2018-07-25T20:26:07.108Z,5.33
2018-07-25T20:28:35.305Z,5.00
2018-07-25T20:31:03.508Z,6.47
2018-07-25T20:33:31.724Z,5.00
2018-07-25T20:35:59.973Z,5.13
2018-07-25T20:38:28.168Z,4.73
2018-07-25T20:40:56.469Z,5.50
2018-07-25T20:43:24.691Z,5.03
2018-07-25T20:45:52.928Z,6.17
2018-07-25T20:48:21.188Z,5.17
2018-07-25T20:50:49.349Z,4.90
2018-07-25T20:53:17.584Z,4.53
2018-07-25T20:55:45.807Z,5.20
2018-07-25T20:58:14.025Z,6.07
2018-07-25T21:00:42.302Z,6.83
2018-07-25T21:03:10.508Z,4.97
2018-07-25T21:05:38.728Z,5.47
2018-07-25T21:08:06.998Z,4.93
2018-07-25T21:10:35.253Z,5.00
2018-07-25T21:13:03.557Z,4.80
2018-07-25T21:15:31.780Z,9.80
2018-07-25T21:18:00.041Z,5.23
2018-07-25T21:20:28.271Z,5.23
2018-07-25T21:22:56.557Z,5.70
2018-07-25T21:25:24.793Z,6.47
2018-07-25T21:27:53.020Z,5.43
2018-07-25T21:30:21.268Z,4.67
2018-07-25T21:32:49.469Z,4.63
2018-07-25T21:35:17.660Z,4.90
2018-07-25T21:37:45.893Z,4.93
2018-07-25T21:40:14.137Z,7.47
2018-07-25T21:42:42.421Z,4.77
2018-07-25T21:45:10.642Z,5.60
2018-07-25T21:47:38.888Z,6.10
2018-07-25T21:50:07.164Z,5.40
2018-07-25T21:52:35.420Z,5.93
2018-07-25T21:55:03.747Z,5.47
2018-07-25T21:57:31.956Z,5.20
2018-07-25T22:00:00.211Z,4.70
2018-07-25T22:02:28.412Z,7.40
2018-07-25T22:04:56.636Z,5.23
2018-07-25T22:07:24.841Z,5.30
2018-07-25T22:09:53.084Z,5.03
2018-07-25T22:12:21.317Z,5.23
2018-07-25T22:14:49.594Z,4.67
2018-07-25T22:17:17.801Z,5.10
2018-07-25T22:19:46.069Z,4.50
2018-07-25T22:22:14.284Z,5.10
2018-07-25T22:24:42.504Z,5.20
2018-07-25T22:27:10.722Z,5.53
2018-07-25T22:29:38.928Z,4.53
2018-07-25T22:32:07.222Z,4.63
2018-07-25T22:34:35.414Z,5.70
2018-07-25T22:37:03.683Z,5.50
2018-07-25T22:39:31.980Z,6.97
2018-07-25T22:42:00.228Z,5.47
2018-07-25T22:44:28.457Z,4.70
2018-07-25T22:46:56.680Z,4.40
2018-07-25T22:49:24.908Z,4.73
2018-07-25T22:51:53.129Z,5.53
2018-07-25T22:54:21.408Z,4.93
2018-07-25T22:56:49.724Z,4.97
2018-07-25T22:59:17.936Z,4.80
2018-07-25T23:01:46.144Z,4.50
2018-07-25T23:04:14.378Z,5.33
2018-07-25T23:06:42.648Z,5.83
2018-07-25T23:09:11.788Z,5.17
2018-07-25T23:11:40.376Z,8.20
2018-07-25T23:14:08.617Z,5.43
2018-07-25T23:16:36.832Z,6.83
2018-07-25T23:19:05.060Z,4.97
2018-07-25T23:21:33.268Z,5.87
2018-07-25T23:24:01.586Z,6.73
2018-07-25T23:26:29.824Z,7.00
2018-07-25T23:28:58.021Z,5.77
2018-07-25T23:31:26.253Z,5.40
2018-07-25T23:33:54.451Z,5.63
2018-07-25T23:36:22.684Z,6.97
2018-07-25T23:38:50.892Z,5.40
2018-07-25T23:41:19.109Z,5.10
2018-07-25T23:43:47.368Z,7.30
2018-07-25T23:46:15.556Z,6.23
2018-07-25T23:48:43.789Z,10.90
2018-07-25T23:51:12.024Z,5.50
2018-07-25T23:53:40.248Z,5.27
2018-07-25T23:56:08.508Z,5.10
2018-07-25T23:58:36.740Z,6.60
